sensor_id;sensor_type;location;lat;lon;timestamp;P1;durP1;ratioP1;P2;durP2;ratioP2
10894;SDS011;5500;49.886;8.074;2023-01-15T00:00:18;0.33;;;0.33;;
10894;SDS011;5500;49.886;8.074;2023-01-15T00:02:46;0.63;;;0.50;;
10894;SDS011;5500;49.886;8.074;2023-01-15T00:05:14;0.83;;;0.40;;
10894;SDS011;5500;49.886;8.074;2023-01-15T00:07:42;0.87;;;0.57;;
10894;SDS011;5500;49.886;8.074;2023-01-15T00:10:10;0.83;;;0.60;;
10894;SDS011;5500;49.886;8.074;2023-01-15T00:12:38;1.70;;;0.70;;
10894;SDS011;5500;49.886;8.074;2023-01-15T00:15:06;1.07;;;0.60;;
10894;SDS011;5500;49.886;8.074;2023-01-15T00:17:35;0.50;;;0.50;;
10894;SDS011;5500;49.886;8.074;2023-01-15T00:20:03;0.70;;;0.63;;
10894;SDS011;5500;49.886;8.074;2023-01-15T00:22:31;0.63;;;0.60;;
10894;SDS011;5500;49.886;8.074;2023-01-15T00:24:59;0.77;;;0.50;;
10894;SDS011;5500;49.886;8.074;2023-01-15T00:27:44;0.47;;;0.33;;
10894;SDS011;5500;49.886;8.074;2023-01-15T00:30:13;0.50;;;0.43;;
10894;SDS011;5500;49.886;8.074;2023-01-15T00:32:43;0.50;;;0.50;;
10894;SDS011;5500;49.886;8.074;2023-01-15T00:35:12;1.33;;;0.40;;
10894;SDS011;5500;49.886;8.074;2023-01-15T00:37:41;0.30;;;0.30;;
10894;SDS011;5500;49.886;8.074;2023-01-15T00:40:13;0.33;;;0.33;;
10894;SDS011;5500;49.886;8.074;2023-01-15T00:42:41;0.67;;;0.30;;
10894;SDS011;5500;49.886;8.074;2023-01-15T00:45:18;0.33;;;0.30;;
10894;SDS011;5500;49.886;8.074;2023-01-15T00:47:52;0.43;;;0.43;;
10894;SDS011;5500;49.886;8.074;2023-01-15T00:50:20;0.50;;;0.50;;
10894;SDS011;5500;49.886;8.074;2023-01-15T00:52:48;0.47;;;0.40;;
10894;SDS011;5500;49.886;8.074;2023-01-15T00:55:16;1.13;;;0.60;;
10894;SDS011;5500;49.886;8.074;2023-01-15T00:57:45;0.73;;;0.50;;
10894;SDS011;5500;49.886;8.074;2023-01-15T01:00:13;0.30;;;0.30;;
10894;SDS011;5500;49.886;8.074;2023-01-15T01:02:44;0.40;;;0.40;;
10894;SDS011;5500;49.886;8.074;2023-01-15T01:05:15;0.50;;;0.40;;
10894;SDS011;5500;49.886;8.074;2023-01-15T01:07:43;1.40;;;0.47;;
10894;SDS011;5500;49.886;8.074;2023-01-15T01:12:44;1.00;;;0.40;;
10894;SDS011;5500;49.886;8.074;2023-01-15T01:15:14;0.43;;;0.30;;
10894;SDS011;5500;49.886;8.074;2023-01-15T01:17:41;0.30;;;0.30;;
10894;SDS011;5500;49.886;8.074;2023-01-15T01:20:11;0.43;;;0.23;;
10894;SDS011;5500;49.886;8.074;2023-01-15T01:22:41;0.20;;;0.20;;
10894;SDS011;5500;49.886;8.074;2023-01-15T01:25:09;0.20;;;0.20;;
10894;SDS011;5500;49.886;8.074;2023-01-15T01:27:37;0.30;;;0.10;;
10894;SDS011;5500;49.886;8.074;2023-01-15T01:30:05;0.40;;;0.40;;
10894;SDS011;5500;49.886;8.074;2023-01-15T01:32:34;0.80;;;0.50;;
10894;SDS011;5500;49.886;8.074;2023-01-15T01:35:02;0.30;;;0.30;;
10894;SDS011;5500;49.886;8.074;2023-01-15T01:37:30;0.20;;;0.20;;
10894;SDS011;5500;49.886;8.074;2023-01-15T01:40:00;0.10;;;0.10;;
10894;SDS011;5500;49.886;8.074;2023-01-15T01:42:32;0.10;;;0.10;;
10894;SDS011;5500;49.886;8.074;2023-01-15T01:45:01;0.20;;;0.20;;
10894;SDS011;5500;49.886;8.074;2023-01-15T01:47:32;0.10;;;0.10;;
10894;SDS011;5500;49.886;8.074;2023-01-15T01:50:04;0.10;;;0.10;;
10894;SDS011;5500;49.886;8.074;2023-01-15T01:52:37;0.63;;;0.30;;
10894;SDS011;5500;49.886;8.074;2023-01-15T01:55:09;0.00;;;0.00;;
10894;SDS011;5500;49.886;8.074;2023-01-15T01:57:39;0.20;;;0.17;;
10894;SDS011;5500;49.886;8.074;2023-01-15T02:00:09;2.53;;;0.40;;
10894;SDS011;5500;49.886;8.074;2023-01-15T02:02:39;0.60;;;0.20;;
10894;SDS011;5500;49.886;8.074;2023-01-15T02:05:08;1.03;;;0.50;;
10894;SDS011;5500;49.886;8.074;2023-01-15T02:07:38;0.73;;;0.63;;
10894;SDS011;5500;49.886;8.074;2023-01-15T02:10:13;0.87;;;0.47;;
10894;SDS011;5500;49.886;8.074;2023-01-15T02:12:43;0.30;;;0.30;;
10894;SDS011;5500;49.886;8.074;2023-01-15T02:15:14;0.13;;;0.10;;
10894;SDS011;5500;49.886;8.074;2023-01-15T02:17:45;0.37;;;0.20;;
10894;SDS011;5500;49.886;8.074;2023-01-15T02:20:20;0.20;;;0.10;;
10894;SDS011;5500;49.886;8.074;2023-01-15T02:22:53;0.37;;;0.37;;
10894;SDS011;5500;49.886;8.074;2023-01-15T02:25:32;1.80;;;0.63;;
10894;SDS011;5500;49.886;8.074;2023-01-15T02:28:18;0.30;;;0.10;;
10894;SDS011;5500;49.886;8.074;2023-01-15T02:30:52;1.60;;;0.60;;
10894;SDS011;5500;49.886;8.074;2023-01-15T02:33:24;0.40;;;0.40;;
10894;SDS011;5500;49.886;8.074;2023-01-15T02:35:55;0.10;;;0.10;;
10894;SDS011;5500;49.886;8.074;2023-01-15T02:38:29;0.20;;;0.20;;
10894;SDS011;5500;49.886;8.074;2023-01-15T02:41:00;0.10;;;0.10;;
10894;SDS011;5500;49.886;8.074;2023-01-15T02:43:31;0.10;;;0.10;;
10894;SDS011;5500;49.886;8.074;2023-01-15T02:46:02;0.47;;;0.20;;
10894;SDS011;5500;49.886;8.074;2023-01-15T02:48:31;0.57;;;0.10;;
10894;SDS011;5500;49.886;8.074;2023-01-15T02:51:01;0.00;;;0.00;;
10894;SDS011;5500;49.886;8.074;2023-01-15T02:53:32;0.53;;;0.13;;
10894;SDS011;5500;49.886;8.074;2023-01-15T02:56:03;0.10;;;0.10;;
10894;SDS011;5500;49.886;8.074;2023-01-15T02:58:37;0.40;;;0.27;;
10894;SDS011;5500;49.886;8.074;2023-01-15T03:01:14;0.07;;;0.07;;
10894;SDS011;5500;49.886;8.074;2023-01-15T03:03:46;0.20;;;0.20;;
10894;SDS011;5500;49.886;8.074;2023-01-15T03:06:20;0.20;;;0.10;;
10894;SDS011;5500;49.886;8.074;2023-01-15T03:08:54;0.40;;;0.20;;
10894;SDS011;5500;49.886;8.074;2023-01-15T03:11:22;0.10;;;0.10;;
10894;SDS011;5500;49.886;8.074;2023-01-15T03:13:53;0.20;;;0.20;;
10894;SDS011;5500;49.886;8.074;2023-01-15T03:16:26;1.13;;;0.30;;
10894;SDS011;5500;49.886;8.074;2023-01-15T03:19:02;0.10;;;0.10;;
10894;SDS011;5500;49.886;8.074;2023-01-15T03:21:36;0.23;;;0.23;;
10894;SDS011;5500;49.886;8.074;2023-01-15T03:24:10;0.10;;;0.10;;
10894;SDS011;5500;49.886;8.074;2023-01-15T03:26:39;0.93;;;0.20;;
10894;SDS011;5500;49.886;8.074;2023-01-15T03:29:08;0.70;;;0.13;;
10894;SDS011;5500;49.886;8.074;2023-01-15T03:31:37;0.00;;;0.00;;
10894;SDS011;5500;49.886;8.074;2023-01-15T03:34:05;0.20;;;0.03;;
10894;SDS011;5500;49.886;8.074;2023-01-15T03:36:33;0.30;;;0.20;;
10894;SDS011;5500;49.886;8.074;2023-01-15T03:39:00;0.10;;;0.10;;
10894;SDS011;5500;49.886;8.074;2023-01-15T03:41:29;0.40;;;0.30;;
10894;SDS011;5500;49.886;8.074;2023-01-15T03:44:04;0.90;;;0.40;;
10894;SDS011;5500;49.886;8.074;2023-01-15T03:49:06;0.23;;;0.23;;
10894;SDS011;5500;49.886;8.074;2023-01-15T03:51:41;0.10;;;0.10;;
10894;SDS011;5500;49.886;8.074;2023-01-15T03:54:13;0.37;;;0.37;;
10894;SDS011;5500;49.886;8.074;2023-01-15T03:56:44;0.40;;;0.10;;
10894;SDS011;5500;49.886;8.074;2023-01-15T03:59:21;0.63;;;0.40;;
10894;SDS011;5500;49.886;8.074;2023-01-15T04:01:50;0.67;;;0.20;;
10894;SDS011;5500;49.886;8.074;2023-01-15T04:04:20;0.10;;;0.10;;
10894;SDS011;5500;49.886;8.074;2023-01-15T04:06:48;0.10;;;0.10;;
10894;SDS011;5500;49.886;8.074;2023-01-15T04:09:15;0.20;;;0.20;;
10894;SDS011;5500;49.886;8.074;2023-01-15T04:11:44;0.23;;;0.10;;
10894;SDS011;5500;49.886;8.074;2023-01-15T04:14:12;0.97;;;0.13;;
10894;SDS011;5500;49.886;8.074;2023-01-15T04:16:40;0.20;;;0.10;;
10894;SDS011;5500;49.886;8.074;2023-01-15T04:19:08;0.43;;;0.30;;
10894;SDS011;5500;49.886;8.074;2023-01-15T04:21:37;0.00;;;0.00;;
10894;SDS011;5500;49.886;8.074;2023-01-15T04:24:04;0.20;;;0.10;;
10894;SDS011;5500;49.886;8.074;2023-01-15T04:26:32;0.27;;;0.20;;
10894;SDS011;5500;49.886;8.074;2023-01-15T04:29:00;0.17;;;0.13;;
10894;SDS011;5500;49.886;8.074;2023-01-15T04:31:28;1.50;;;0.10;;
10894;SDS011;5500;49.886;8.074;2023-01-15T04:33:57;1.50;;;0.20;;
10894;SDS011;5500;49.886;8.074;2023-01-15T04:36:25;1.30;;;0.13;;
10894;SDS011;5500;49.886;8.074;2023-01-15T04:38:54;0.00;;;0.00;;
10894;SDS011;5500;49.886;8.074;2023-01-15T04:41:22;0.10;;;0.10;;
10894;SDS011;5500;49.886;8.074;2023-01-15T04:44:08;0.13;;;0.10;;
10894;SDS011;5500;49.886;8.074;2023-01-15T04:46:36;0.07;;;0.03;;
10894;SDS011;5500;49.886;8.074;2023-01-15T04:49:05;0.10;;;0.10;;
10894;SDS011;5500;49.886;8.074;2023-01-15T04:51:33;0.10;;;0.10;;
10894;SDS011;5500;49.886;8.074;2023-01-15T04:54:03;0.17;;;0.10;;
10894;SDS011;5500;49.886;8.074;2023-01-15T04:56:31;0.00;;;0.00;;
10894;SDS011;5500;49.886;8.074;2023-01-15T04:58:59;0.00;;;0.00;;
10894;SDS011;5500;49.886;8.074;2023-01-15T05:01:27;0.00;;;0.00;;
10894;SDS011;5500;49.886;8.074;2023-01-15T05:03:55;0.50;;;0.20;;
10894;SDS011;5500;49.886;8.074;2023-01-15T05:06:23;0.00;;;0.00;;
10894;SDS011;5500;49.886;8.074;2023-01-15T05:08:51;1.00;;;0.20;;
10894;SDS011;5500;49.886;8.074;2023-01-15T05:11:20;0.00;;;0.00;;
10894;SDS011;5500;49.886;8.074;2023-01-15T05:13:47;0.27;;;0.20;;
10894;SDS011;5500;49.886;8.074;2023-01-15T05:16:16;0.00;;;0.00;;
10894;SDS011;5500;49.886;8.074;2023-01-15T05:18:45;0.10;;;0.00;;
10894;SDS011;5500;49.886;8.074;2023-01-15T05:21:14;0.20;;;0.10;;
10894;SDS011;5500;49.886;8.074;2023-01-15T05:23:46;0.30;;;0.27;;
10894;SDS011;5500;49.886;8.074;2023-01-15T05:26:14;0.00;;;0.00;;
10894;SDS011;5500;49.886;8.074;2023-01-15T05:28:44;0.43;;;0.17;;
10894;SDS011;5500;49.886;8.074;2023-01-15T05:31:12;0.10;;;0.10;;
10894;SDS011;5500;49.886;8.074;2023-01-15T05:33:41;0.10;;;0.10;;
10894;SDS011;5500;49.886;8.074;2023-01-15T05:36:10;0.10;;;0.00;;
10894;SDS011;5500;49.886;8.074;2023-01-15T05:38:39;0.00;;;0.00;;
10894;SDS011;5500;49.886;8.074;2023-01-15T05:41:07;0.13;;;0.13;;
10894;SDS011;5500;49.886;8.074;2023-01-15T05:43:51;0.00;;;0.00;;
10894;SDS011;5500;49.886;8.074;2023-01-15T05:46:19;0.10;;;0.00;;
10894;SDS011;5500;49.886;8.074;2023-01-15T05:48:47;0.00;;;0.00;;
10894;SDS011;5500;49.886;8.074;2023-01-15T05:51:15;0.13;;;0.13;;
10894;SDS011;5500;49.886;8.074;2023-01-15T05:53:43;0.40;;;0.10;;
10894;SDS011;5500;49.886;8.074;2023-01-15T05:56:10;0.00;;;0.00;;
10894;SDS011;5500;49.886;8.074;2023-01-15T05:58:38;1.23;;;0.03;;
10894;SDS011;5500;49.886;8.074;2023-01-15T06:01:07;0.00;;;0.00;;
10894;SDS011;5500;49.886;8.074;2023-01-15T06:03:36;0.00;;;0.00;;
10894;SDS011;5500;49.886;8.074;2023-01-15T06:06:04;0.40;;;0.30;;
10894;SDS011;5500;49.886;8.074;2023-01-15T06:08:32;0.37;;;0.37;;
10894;SDS011;5500;49.886;8.074;2023-01-15T06:11:00;0.23;;;0.23;;
10894;SDS011;5500;49.886;8.074;2023-01-15T06:13:27;0.13;;;0.10;;
10894;SDS011;5500;49.886;8.074;2023-01-15T06:15:55;0.20;;;0.10;;
10894;SDS011;5500;49.886;8.074;2023-01-15T06:18:24;0.30;;;0.13;;
10894;SDS011;5500;49.886;8.074;2023-01-15T06:20:52;0.07;;;0.07;;
10894;SDS011;5500;49.886;8.074;2023-01-15T06:23:19;0.00;;;0.00;;
10894;SDS011;5500;49.886;8.074;2023-01-15T06:25:47;0.20;;;0.10;;
10894;SDS011;5500;49.886;8.074;2023-01-15T06:28:15;0.50;;;0.20;;
10894;SDS011;5500;49.886;8.074;2023-01-15T06:30:42;0.47;;;0.10;;
10894;SDS011;5500;49.886;8.074;2023-01-15T06:33:10;1.50;;;0.30;;
10894;SDS011;5500;49.886;8.074;2023-01-15T06:35:39;0.10;;;0.10;;
10894;SDS011;5500;49.886;8.074;2023-01-15T06:38:06;0.00;;;0.00;;
10894;SDS011;5500;49.886;8.074;2023-01-15T06:40:34;0.47;;;0.13;;
10894;SDS011;5500;49.886;8.074;2023-01-15T06:43:02;0.10;;;0.10;;
10894;SDS011;5500;49.886;8.074;2023-01-15T06:45:47;0.20;;;0.13;;
10894;SDS011;5500;49.886;8.074;2023-01-15T06:48:33;0.07;;;0.00;;
10894;SDS011;5500;49.886;8.074;2023-01-15T06:51:02;0.13;;;0.13;;
10894;SDS011;5500;49.886;8.074;2023-01-15T06:53:29;0.70;;;0.30;;
10894;SDS011;5500;49.886;8.074;2023-01-15T06:55:57;0.20;;;0.20;;
10894;SDS011;5500;49.886;8.074;2023-01-15T06:58:25;0.30;;;0.20;;
10894;SDS011;5500;49.886;8.074;2023-01-15T07:00:52;0.10;;;0.10;;
10894;SDS011;5500;49.886;8.074;2023-01-15T07:03:21;0.10;;;0.10;;
10894;SDS011;5500;49.886;8.074;2023-01-15T07:05:49;0.20;;;0.20;;
10894;SDS011;5500;49.886;8.074;2023-01-15T07:08:18;0.00;;;0.00;;
10894;SDS011;5500;49.886;8.074;2023-01-15T07:10:46;0.10;;;0.10;;
10894;SDS011;5500;49.886;8.074;2023-01-15T07:13:13;0.00;;;0.00;;
10894;SDS011;5500;49.886;8.074;2023-01-15T07:15:41;0.07;;;0.07;;
10894;SDS011;5500;49.886;8.074;2023-01-15T07:18:09;0.07;;;0.07;;
10894;SDS011;5500;49.886;8.074;2023-01-15T07:20:36;0.10;;;0.10;;
10894;SDS011;5500;49.886;8.074;2023-01-15T07:23:04;0.00;;;0.00;;
10894;SDS011;5500;49.886;8.074;2023-01-15T07:25:33;0.17;;;0.17;;
10894;SDS011;5500;49.886;8.074;2023-01-15T07:28:00;0.20;;;0.20;;
10894;SDS011;5500;49.886;8.074;2023-01-15T07:30:28;0.40;;;0.40;;
10894;SDS011;5500;49.886;8.074;2023-01-15T07:32:56;0.40;;;0.40;;
10894;SDS011;5500;49.886;8.074;2023-01-15T07:35:23;0.20;;;0.20;;
10894;SDS011;5500;49.886;8.074;2023-01-15T07:37:51;0.57;;;0.20;;
10894;SDS011;5500;49.886;8.074;2023-01-15T07:40:19;0.30;;;0.30;;
10894;SDS011;5500;49.886;8.074;2023-01-15T07:42:48;0.20;;;0.10;;
10894;SDS011;5500;49.886;8.074;2023-01-15T07:45:33;0.20;;;0.10;;
10894;SDS011;5500;49.886;8.074;2023-01-15T07:48:18;0.10;;;0.10;;
10894;SDS011;5500;49.886;8.074;2023-01-15T07:51:04;0.60;;;0.20;;
10894;SDS011;5500;49.886;8.074;2023-01-15T07:53:31;0.10;;;0.10;;
10894;SDS011;5500;49.886;8.074;2023-01-15T07:55:59;0.10;;;0.10;;
10894;SDS011;5500;49.886;8.074;2023-01-15T07:58:28;0.37;;;0.30;;
10894;SDS011;5500;49.886;8.074;2023-01-15T08:00:55;0.47;;;0.40;;
10894;SDS011;5500;49.886;8.074;2023-01-15T08:03:23;1.07;;;0.83;;
10894;SDS011;5500;49.886;8.074;2023-01-15T08:05:51;0.50;;;0.50;;
10894;SDS011;5500;49.886;8.074;2023-01-15T08:08:21;0.40;;;0.40;;
10894;SDS011;5500;49.886;8.074;2023-01-15T08:10:49;1.67;;;1.27;;
10894;SDS011;5500;49.886;8.074;2023-01-15T08:13:36;4.00;;;3.10;;
10894;SDS011;5500;49.886;8.074;2023-01-15T08:16:21;3.00;;;2.43;;
10894;SDS011;5500;49.886;8.074;2023-01-15T08:18:49;2.10;;;1.50;;
10894;SDS011;5500;49.886;8.074;2023-01-15T08:21:16;0.60;;;0.60;;
10894;SDS011;5500;49.886;8.074;2023-01-15T08:23:44;1.20;;;1.10;;
10894;SDS011;5500;49.886;8.074;2023-01-15T08:26:12;0.87;;;0.30;;
10894;SDS011;5500;49.886;8.074;2023-01-15T08:28:41;0.60;;;0.60;;
10894;SDS011;5500;49.886;8.074;2023-01-15T08:31:09;0.33;;;0.33;;
10894;SDS011;5500;49.886;8.074;2023-01-15T08:33:37;0.60;;;0.60;;
10894;SDS011;5500;49.886;8.074;2023-01-15T08:36:04;0.90;;;0.80;;
10894;SDS011;5500;49.886;8.074;2023-01-15T08:38:33;0.50;;;0.50;;
10894;SDS011;5500;49.886;8.074;2023-01-15T08:41:01;0.50;;;0.50;;
10894;SDS011;5500;49.886;8.074;2023-01-15T08:43:29;0.60;;;0.60;;
10894;SDS011;5500;49.886;8.074;2023-01-15T08:46:00;0.47;;;0.47;;
10894;SDS011;5500;49.886;8.074;2023-01-15T08:48:29;0.40;;;0.40;;
10894;SDS011;5500;49.886;8.074;2023-01-15T08:50:58;0.20;;;0.20;;
10894;SDS011;5500;49.886;8.074;2023-01-15T08:53:30;0.30;;;0.30;;
10894;SDS011;5500;49.886;8.074;2023-01-15T08:55:58;0.17;;;0.17;;
10894;SDS011;5500;49.886;8.074;2023-01-15T08:58:26;0.43;;;0.40;;
10894;SDS011;5500;49.886;8.074;2023-01-15T09:00:55;0.40;;;0.40;;
10894;SDS011;5500;49.886;8.074;2023-01-15T09:03:24;1.00;;;0.40;;
10894;SDS011;5500;49.886;8.074;2023-01-15T09:05:51;0.40;;;0.20;;
10894;SDS011;5500;49.886;8.074;2023-01-15T09:08:19;0.20;;;0.20;;
10894;SDS011;5500;49.886;8.074;2023-01-15T09:10:47;0.30;;;0.20;;
10894;SDS011;5500;49.886;8.074;2023-01-15T09:13:14;0.80;;;0.80;;
10894;SDS011;5500;49.886;8.074;2023-01-15T09:15:42;0.50;;;0.33;;
10894;SDS011;5500;49.886;8.074;2023-01-15T09:18:10;0.83;;;0.80;;
10894;SDS011;5500;49.886;8.074;2023-01-15T09:20:41;0.60;;;0.60;;
10894;SDS011;5500;49.886;8.074;2023-01-15T09:23:09;1.30;;;1.20;;
10894;SDS011;5500;49.886;8.074;2023-01-15T09:25:36;0.90;;;0.90;;
10894;SDS011;5500;49.886;8.074;2023-01-15T09:28:04;0.60;;;0.60;;
10894;SDS011;5500;49.886;8.074;2023-01-15T09:30:32;0.50;;;0.50;;
10894;SDS011;5500;49.886;8.074;2023-01-15T09:32:59;0.50;;;0.40;;
10894;SDS011;5500;49.886;8.074;2023-01-15T09:35:27;0.50;;;0.50;;
10894;SDS011;5500;49.886;8.074;2023-01-15T09:37:56;0.90;;;0.43;;
10894;SDS011;5500;49.886;8.074;2023-01-15T09:43:13;0.30;;;0.30;;
10894;SDS011;5500;49.886;8.074;2023-01-15T09:45:46;0.70;;;0.70;;
10894;SDS011;5500;49.886;8.074;2023-01-15T09:48:19;0.57;;;0.40;;
10894;SDS011;5500;49.886;8.074;2023-01-15T09:50:58;0.33;;;0.30;;
10894;SDS011;5500;49.886;8.074;2023-01-15T09:53:40;0.60;;;0.37;;
10894;SDS011;5500;49.886;8.074;2023-01-15T09:56:20;0.30;;;0.30;;
10894;SDS011;5500;49.886;8.074;2023-01-15T09:58:49;1.60;;;0.47;;
10894;SDS011;5500;49.886;8.074;2023-01-15T10:01:17;0.43;;;0.27;;
10894;SDS011;5500;49.886;8.074;2023-01-15T10:03:48;1.60;;;0.53;;
10894;SDS011;5500;49.886;8.074;2023-01-15T10:06:19;0.27;;;0.27;;
10894;SDS011;5500;49.886;8.074;2023-01-15T10:08:49;1.37;;;0.53;;
10894;SDS011;5500;49.886;8.074;2023-01-15T10:11:23;0.87;;;0.40;;
10894;SDS011;5500;49.886;8.074;2023-01-15T10:14:19;2.80;;;0.40;;
10894;SDS011;5500;49.886;8.074;2023-01-15T10:16:56;0.77;;;0.20;;
10894;SDS011;5500;49.886;8.074;2023-01-15T10:19:24;0.57;;;0.30;;
10894;SDS011;5500;49.886;8.074;2023-01-15T10:22:10;0.63;;;0.30;;
10894;SDS011;5500;49.886;8.074;2023-01-15T10:24:47;1.00;;;0.90;;
10894;SDS011;5500;49.886;8.074;2023-01-15T10:27:19;1.10;;;0.47;;
10894;SDS011;5500;49.886;8.074;2023-01-15T10:29:48;3.97;;;0.67;;
10894;SDS011;5500;49.886;8.074;2023-01-15T10:32:26;1.40;;;0.43;;
10894;SDS011;5500;49.886;8.074;2023-01-15T10:35:06;1.57;;;0.67;;
10894;SDS011;5500;49.886;8.074;2023-01-15T10:37:51;0.43;;;0.43;;
10894;SDS011;5500;49.886;8.074;2023-01-15T10:43:30;0.70;;;0.40;;
10894;SDS011;5500;49.886;8.074;2023-01-15T10:46:08;1.10;;;0.67;;
10894;SDS011;5500;49.886;8.074;2023-01-15T10:48:40;1.80;;;0.60;;
10894;SDS011;5500;49.886;8.074;2023-01-15T10:51:12;0.73;;;0.63;;
10894;SDS011;5500;49.886;8.074;2023-01-15T10:53:41;0.87;;;0.60;;
10894;SDS011;5500;49.886;8.074;2023-01-15T10:56:13;0.53;;;0.37;;
10894;SDS011;5500;49.886;8.074;2023-01-15T10:58:47;0.60;;;0.60;;
10894;SDS011;5500;49.886;8.074;2023-01-15T11:01:18;0.97;;;0.47;;
10894;SDS011;5500;49.886;8.074;2023-01-15T11:03:48;1.37;;;0.40;;
10894;SDS011;5500;49.886;8.074;2023-01-15T11:06:17;0.30;;;0.30;;
10894;SDS011;5500;49.886;8.074;2023-01-15T11:08:46;1.00;;;0.20;;
10894;SDS011;5500;49.886;8.074;2023-01-15T11:11:39;2.43;;;0.33;;
10894;SDS011;5500;49.886;8.074;2023-01-15T11:14:31;0.50;;;0.40;;
10894;SDS011;5500;49.886;8.074;2023-01-15T11:17:18;0.47;;;0.30;;
10894;SDS011;5500;49.886;8.074;2023-01-15T11:20:04;3.40;;;0.60;;
10894;SDS011;5500;49.886;8.074;2023-01-15T11:22:39;0.57;;;0.40;;
10894;SDS011;5500;49.886;8.074;2023-01-15T11:25:10;2.60;;;1.23;;
10894;SDS011;5500;49.886;8.074;2023-01-15T11:27:39;0.80;;;0.53;;
10894;SDS011;5500;49.886;8.074;2023-01-15T11:32:54;0.40;;;0.40;;
10894;SDS011;5500;49.886;8.074;2023-01-15T11:35:23;0.73;;;0.50;;
10894;SDS011;5500;49.886;8.074;2023-01-15T11:38:00;0.50;;;0.50;;
10894;SDS011;5500;49.886;8.074;2023-01-15T11:40:28;2.60;;;0.70;;
10894;SDS011;5500;49.886;8.074;2023-01-15T11:42:57;3.63;;;0.77;;
10894;SDS011;5500;49.886;8.074;2023-01-15T11:45:46;2.77;;;0.80;;
10894;SDS011;5500;49.886;8.074;2023-01-15T11:48:42;3.30;;;0.83;;
10894;SDS011;5500;49.886;8.074;2023-01-15T11:51:28;1.97;;;0.93;;
10894;SDS011;5500;49.886;8.074;2023-01-15T11:53:58;1.47;;;0.93;;
10894;SDS011;5500;49.886;8.074;2023-01-15T11:56:28;2.03;;;1.27;;
10894;SDS011;5500;49.886;8.074;2023-01-15T11:58:58;2.67;;;0.87;;
10894;SDS011;5500;49.886;8.074;2023-01-15T12:01:28;1.47;;;1.03;;
10894;SDS011;5500;49.886;8.074;2023-01-15T12:03:57;1.50;;;0.87;;
10894;SDS011;5500;49.886;8.074;2023-01-15T12:06:26;1.87;;;1.10;;
10894;SDS011;5500;49.886;8.074;2023-01-15T12:08:55;1.60;;;0.90;;
10894;SDS011;5500;49.886;8.074;2023-01-15T12:14:30;3.27;;;1.00;;
10894;SDS011;5500;49.886;8.074;2023-01-15T12:17:08;2.93;;;1.00;;
10894;SDS011;5500;49.886;8.074;2023-01-15T12:19:44;2.13;;;1.03;;
10894;SDS011;5500;49.886;8.074;2023-01-15T12:22:19;3.83;;;1.33;;
10894;SDS011;5500;49.886;8.074;2023-01-15T12:25:02;3.80;;;0.90;;
10894;SDS011;5500;49.886;8.074;2023-01-15T12:27:51;0.77;;;0.77;;
10894;SDS011;5500;49.886;8.074;2023-01-15T12:30:24;3.13;;;0.90;;
10894;SDS011;5500;49.886;8.074;2023-01-15T12:32:57;1.63;;;0.90;;
10894;SDS011;5500;49.886;8.074;2023-01-15T12:35:28;2.23;;;1.10;;
10894;SDS011;5500;49.886;8.074;2023-01-15T12:37:58;3.30;;;0.93;;
10894;SDS011;5500;49.886;8.074;2023-01-15T12:40:31;4.60;;;1.17;;
10894;SDS011;5500;49.886;8.074;2023-01-15T12:43:02;2.93;;;1.23;;
10894;SDS011;5500;49.886;8.074;2023-01-15T12:45:50;5.10;;;1.43;;
10894;SDS011;5500;49.886;8.074;2023-01-15T12:48:18;2.00;;;1.00;;
10894;SDS011;5500;49.886;8.074;2023-01-15T12:50:49;2.13;;;1.00;;
10894;SDS011;5500;49.886;8.074;2023-01-15T12:53:18;2.13;;;0.80;;
10894;SDS011;5500;49.886;8.074;2023-01-15T12:55:48;1.33;;;0.80;;
10894;SDS011;5500;49.886;8.074;2023-01-15T12:58:20;4.43;;;1.27;;
10894;SDS011;5500;49.886;8.074;2023-01-15T13:01:00;1.23;;;0.90;;
10894;SDS011;5500;49.886;8.074;2023-01-15T13:03:32;2.73;;;0.87;;
10894;SDS011;5500;49.886;8.074;2023-01-15T13:06:04;2.37;;;0.93;;
10894;SDS011;5500;49.886;8.074;2023-01-15T13:08:36;2.53;;;0.90;;
10894;SDS011;5500;49.886;8.074;2023-01-15T13:11:08;1.90;;;0.67;;
10894;SDS011;5500;49.886;8.074;2023-01-15T13:13:37;2.00;;;1.10;;
10894;SDS011;5500;49.886;8.074;2023-01-15T13:16:14;4.20;;;1.03;;
10894;SDS011;5500;49.886;8.074;2023-01-15T13:18:50;2.30;;;1.27;;
10894;SDS011;5500;49.886;8.074;2023-01-15T13:21:21;3.10;;;1.10;;
10894;SDS011;5500;49.886;8.074;2023-01-15T13:23:55;5.23;;;2.70;;
10894;SDS011;5500;49.886;8.074;2023-01-15T13:29:41;4.10;;;1.90;;
10894;SDS011;5500;49.886;8.074;2023-01-15T13:32:15;4.53;;;2.00;;
10894;SDS011;5500;49.886;8.074;2023-01-15T13:34:46;3.87;;;2.50;;
10894;SDS011;5500;49.886;8.074;2023-01-15T13:37:17;5.67;;;2.90;;
10894;SDS011;5500;49.886;8.074;2023-01-15T13:39:48;3.20;;;2.07;;
10894;SDS011;5500;49.886;8.074;2023-01-15T13:42:19;3.77;;;1.50;;
10894;SDS011;5500;49.886;8.074;2023-01-15T13:45:04;4.77;;;2.50;;
10894;SDS011;5500;49.886;8.074;2023-01-15T13:47:36;5.57;;;2.30;;
10894;SDS011;5500;49.886;8.074;2023-01-15T13:50:12;6.20;;;2.43;;
10894;SDS011;5500;49.886;8.074;2023-01-15T13:52:43;8.00;;;2.77;;
10894;SDS011;5500;49.886;8.074;2023-01-15T13:55:12;5.40;;;1.50;;
10894;SDS011;5500;49.886;8.074;2023-01-15T13:57:46;8.50;;;2.20;;
10894;SDS011;5500;49.886;8.074;2023-01-15T14:00:25;7.27;;;1.97;;
10894;SDS011;5500;49.886;8.074;2023-01-15T14:02:56;6.23;;;2.23;;
10894;SDS011;5500;49.886;8.074;2023-01-15T14:05:26;3.50;;;1.30;;
10894;SDS011;5500;49.886;8.074;2023-01-15T14:07:55;5.13;;;1.27;;
10894;SDS011;5500;49.886;8.074;2023-01-15T14:10:33;2.10;;;1.20;;
10894;SDS011;5500;49.886;8.074;2023-01-15T14:13:17;1.87;;;0.90;;
10894;SDS011;5500;49.886;8.074;2023-01-15T14:15:53;6.10;;;1.13;;
10894;SDS011;5500;49.886;8.074;2023-01-15T14:18:32;5.87;;;1.47;;
10894;SDS011;5500;49.886;8.074;2023-01-15T14:21:09;4.53;;;1.50;;
10894;SDS011;5500;49.886;8.074;2023-01-15T14:23:54;3.87;;;1.50;;
10894;SDS011;5500;49.886;8.074;2023-01-15T14:26:31;2.60;;;1.90;;
10894;SDS011;5500;49.886;8.074;2023-01-15T14:29:12;3.00;;;1.50;;
10894;SDS011;5500;49.886;8.074;2023-01-15T14:31:58;1.80;;;1.30;;
10894;SDS011;5500;49.886;8.074;2023-01-15T14:34:31;4.70;;;1.40;;
10894;SDS011;5500;49.886;8.074;2023-01-15T14:37:00;4.80;;;1.77;;
10894;SDS011;5500;49.886;8.074;2023-01-15T14:39:31;7.00;;;1.80;;
10894;SDS011;5500;49.886;8.074;2023-01-15T14:42:06;6.73;;;1.53;;
10894;SDS011;5500;49.886;8.074;2023-01-15T14:44:54;4.37;;;1.37;;
10894;SDS011;5500;49.886;8.074;2023-01-15T14:47:25;2.50;;;1.07;;
10894;SDS011;5500;49.886;8.074;2023-01-15T14:50:00;2.33;;;1.27;;
10894;SDS011;5500;49.886;8.074;2023-01-15T14:52:30;4.07;;;1.20;;
10894;SDS011;5500;49.886;8.074;2023-01-15T14:54:58;8.80;;;1.40;;
10894;SDS011;5500;49.886;8.074;2023-01-15T14:57:26;2.53;;;1.10;;
10894;SDS011;5500;49.886;8.074;2023-01-15T14:59:56;2.90;;;1.27;;
10894;SDS011;5500;49.886;8.074;2023-01-15T15:02:28;4.70;;;1.50;;
10894;SDS011;5500;49.886;8.074;2023-01-15T15:05:02;8.30;;;1.63;;
10894;SDS011;5500;49.886;8.074;2023-01-15T15:07:35;4.30;;;1.20;;
10894;SDS011;5500;49.886;8.074;2023-01-15T15:10:08;2.67;;;1.07;;
10894;SDS011;5500;49.886;8.074;2023-01-15T15:12:41;4.33;;;1.43;;
10894;SDS011;5500;49.886;8.074;2023-01-15T15:15:11;4.93;;;1.27;;
10894;SDS011;5500;49.886;8.074;2023-01-15T15:17:43;2.43;;;1.17;;
10894;SDS011;5500;49.886;8.074;2023-01-15T15:20:18;4.57;;;1.50;;
10894;SDS011;5500;49.886;8.074;2023-01-15T15:22:50;2.50;;;1.80;;
10894;SDS011;5500;49.886;8.074;2023-01-15T15:25:21;2.57;;;1.10;;
10894;SDS011;5500;49.886;8.074;2023-01-15T15:27:59;3.77;;;1.40;;
10894;SDS011;5500;49.886;8.074;2023-01-15T15:30:29;5.17;;;1.23;;
10894;SDS011;5500;49.886;8.074;2023-01-15T15:32:58;2.73;;;1.20;;
10894;SDS011;5500;49.886;8.074;2023-01-15T15:35:28;2.00;;;1.33;;
10894;SDS011;5500;49.886;8.074;2023-01-15T15:37:58;4.47;;;1.20;;
10894;SDS011;5500;49.886;8.074;2023-01-15T15:40:30;2.43;;;1.07;;
10894;SDS011;5500;49.886;8.074;2023-01-15T15:43:00;3.73;;;1.30;;
10894;SDS011;5500;49.886;8.074;2023-01-15T15:45:50;7.53;;;1.57;;